createdAt,value
2019-06-08T00:02:23.002Z,61.01
2019-06-08T00:04:55.244Z,62.61
2019-06-08T00:07:27.244Z,59.23
2019-06-08T00:09:59.311Z,54.88
2019-06-08T00:12:31.318Z,56.68
2019-06-08T00:15:03.764Z,58.79
2019-06-08T00:17:38.751Z,60.47
2019-06-08T00:20:09.739Z,61.81
2019-06-08T00:22:41.860Z,63.25
2019-06-08T00:25:15.806Z,59.44
2019-06-08T00:27:48.017Z,55.15
2019-06-08T00:30:20.259Z,57.28
2019-06-08T00:32:52.288Z,58.88
2019-06-08T00:35:24.948Z,60.98
2019-06-08T00:38:00.127Z,62.62
2019-06-08T00:40:32.173Z,59.58
2019-06-08T00:43:04.082Z,54.95
2019-06-08T00:45:36.075Z,56.72
2019-06-08T00:48:08.068Z,58.75
2019-06-08T00:50:39.956Z,60.75
2019-06-08T00:53:11.957Z,62.01
2019-06-08T00:55:43.937Z,63.83
2019-06-08T00:58:15.895Z,60.29
2019-06-08T01:00:49.099Z,52.35
2019-06-08T01:03:21.653Z,51.12
2019-06-08T01:05:53.763Z,53.78
2019-06-08T01:08:25.731Z,56.04
2019-06-08T01:10:57.793Z,58.19
2019-06-08T01:13:29.771Z,59.91
2019-06-08T01:16:02.273Z,61.27
2019-06-08T01:18:34.311Z,62.20
2019-06-08T01:21:06.541Z,62.92
2019-06-08T01:23:38.428Z,59.39
2019-06-08T01:26:10.335Z,55.63
2019-06-08T01:28:42.226Z,57.39
2019-06-08T01:31:14.145Z,59.68
2019-06-08T01:33:46.188Z,60.86
2019-06-08T01:36:18.273Z,62.47
2019-06-08T01:38:50.301Z,58.87
2019-06-08T01:41:23.239Z,54.47
2019-06-08T01:43:55.400Z,57.29
2019-06-08T01:46:28.234Z,58.84
2019-06-08T01:49:00.269Z,60.94
2019-06-08T01:51:32.782Z,62.78
2019-06-08T01:54:05.762Z,59.20
2019-06-08T01:56:37.817Z,54.62
2019-06-08T01:59:09.787Z,56.65
2019-06-08T02:01:41.796Z,58.64
2019-06-08T02:04:13.764Z,60.11
2019-06-08T02:06:45.878Z,61.51
2019-06-08T02:09:17.797Z,63.02
2019-06-08T02:11:49.780Z,59.55
2019-06-08T02:14:21.745Z,55.15
2019-06-08T02:16:53.837Z,56.88
2019-06-08T02:19:26.542Z,59.21
2019-06-08T02:21:58.570Z,60.94
2019-06-08T02:25:03.792Z,62.30
2019-06-08T02:27:48.901Z,58.66
2019-06-08T02:30:22.711Z,54.72
2019-06-08T02:33:28.329Z,56.91
2019-06-08T02:36:13.444Z,58.79
2019-06-08T02:38:47.088Z,61.00
2019-06-08T02:41:51.417Z,62.57
2019-06-08T02:44:25.034Z,59.35
2019-06-08T02:46:58.587Z,55.13
2019-06-08T02:49:33.221Z,57.00
2019-06-08T02:52:07.255Z,59.12
2019-06-08T02:54:41.652Z,61.12
2019-06-08T02:57:15.559Z,63.09
2019-06-08T02:59:50.676Z,59.03
2019-06-08T03:02:29.638Z,55.27
2019-06-08T03:05:04.751Z,57.70
2019-06-08T03:07:42.341Z,59.86
2019-06-08T03:10:24.934Z,61.94
2019-06-08T03:13:12.069Z,63.79
2019-06-08T03:16:16.756Z,58.08
2019-06-08T03:18:50.333Z,54.81
2019-06-08T03:21:23.976Z,56.28
2019-06-08T03:24:09.342Z,59.75
2019-06-08T03:26:44.312Z,60.95
2019-06-08T03:29:17.865Z,62.36
2019-06-08T03:31:55.534Z,59.10
2019-06-08T03:34:23.796Z,55.90
2019-06-08T03:36:57.314Z,57.54
2019-06-08T03:39:29.436Z,60.12
2019-06-08T03:42:01.415Z,62.49
2019-06-08T03:44:34.237Z,59.43
2019-06-08T03:47:06.278Z,55.93
2019-06-08T03:49:50.709Z,58.02
2019-06-08T03:52:11.773Z,59.98
2019-06-08T03:54:45.236Z,61.49
2019-06-08T03:57:17.360Z,63.07
2019-06-08T03:59:49.454Z,59.21
2019-06-08T04:02:21.685Z,55.53
2019-06-08T04:04:54.064Z,57.57
2019-06-08T04:07:26.028Z,59.93
2019-06-08T04:09:59.186Z,61.25
2019-06-08T04:12:31.088Z,63.16
2019-06-08T04:15:03.695Z,59.36
2019-06-08T04:17:35.723Z,55.31
2019-06-08T04:20:11.641Z,57.58
2019-06-08T04:22:47.094Z,59.63
2019-06-08T04:25:20.460Z,61.44
2019-06-08T04:27:52.500Z,62.66
2019-06-08T04:30:24.593Z,60.00
2019-06-08T04:32:56.637Z,51.47
2019-06-08T04:35:28.683Z,50.93
2019-06-08T04:38:00.823Z,53.84
2019-06-08T04:40:32.954Z,56.17
2019-06-08T04:43:05.479Z,57.79
2019-06-08T04:45:40.920Z,59.61
2019-06-08T04:48:12.513Z,61.04
2019-06-08T04:50:45.420Z,62.09
2019-06-08T04:53:18.189Z,62.99
2019-06-08T04:55:50.172Z,59.56
2019-06-08T04:58:22.305Z,51.63
2019-06-08T05:00:54.391Z,51.34
2019-06-08T05:03:26.493Z,53.42
2019-06-08T05:05:59.571Z,56.19
2019-06-08T05:08:32.025Z,58.65
2019-06-08T05:11:04.393Z,59.21
2019-06-08T05:13:36.768Z,61.06
2019-06-08T05:16:08.800Z,61.67
2019-06-08T05:18:41.354Z,63.67
2019-06-08T05:21:13.681Z,57.22
2019-06-08T05:23:47.877Z,54.30
2019-06-08T05:26:20.713Z,56.22
2019-06-08T05:28:53.182Z,58.36
2019-06-08T05:31:25.400Z,60.27
2019-06-08T05:33:57.983Z,61.34
2019-06-08T05:36:30.381Z,63.03
2019-06-08T05:39:02.835Z,57.51
2019-06-08T05:41:36.152Z,55.17
2019-06-08T05:44:08.843Z,56.63
2019-06-08T05:46:41.756Z,58.34
2019-06-08T05:49:15.391Z,60.35
2019-06-08T05:51:47.852Z,61.89
2019-06-08T05:54:27.446Z,62.92
2019-06-08T05:57:02.778Z,56.57
2019-06-08T05:59:39.764Z,56.91
2019-06-08T06:02:15.030Z,59.74
2019-06-08T06:04:52.207Z,61.12
2019-06-08T06:07:26.511Z,62.62
2019-06-08T06:09:59.213Z,56.96
2019-06-08T06:12:31.794Z,55.90
2019-06-08T06:15:06.198Z,58.77
2019-06-08T06:17:38.424Z,61.10
2019-06-08T06:20:14.696Z,62.83
2019-06-08T06:22:49.505Z,57.82
2019-06-08T06:25:21.960Z,59.68
2019-06-08T06:27:54.480Z,62.04
2019-06-08T06:30:29.557Z,59.90
2019-06-08T06:33:01.545Z,58.02
2019-06-08T06:35:35.601Z,61.41
2019-06-08T06:38:08.746Z,62.27
2019-06-08T06:40:41.899Z,56.52
2019-06-08T06:43:13.927Z,58.45
2019-06-08T06:45:46.332Z,60.79
2019-06-08T06:48:18.308Z,61.83
2019-06-08T06:50:50.461Z,61.69
2019-06-08T06:53:22.392Z,56.48
2019-06-08T06:55:54.310Z,57.23
2019-06-08T06:58:26.357Z,60.47
2019-06-08T07:00:58.365Z,61.80
2019-06-08T07:03:30.346Z,61.95
2019-06-08T07:06:02.347Z,55.41
2019-06-08T07:08:36.365Z,55.44
2019-06-08T07:11:09.647Z,57.35
2019-06-08T07:13:41.636Z,58.86
2019-06-08T07:16:18.449Z,60.49
2019-06-08T07:18:48.210Z,62.18
2019-06-08T07:21:21.242Z,61.86
2019-06-08T07:23:54.540Z,55.50
2019-06-08T07:26:28.850Z,56.75
2019-06-08T07:29:00.917Z,59.12
2019-06-08T07:31:32.962Z,60.31
2019-06-08T07:34:05.091Z,61.47
2019-06-08T07:36:37.072Z,62.29
2019-06-08T07:39:09.581Z,58.69
2019-06-08T07:41:41.591Z,56.12
2019-06-08T07:44:13.557Z,58.16
2019-06-08T07:46:46.954Z,60.23
2019-06-08T07:49:21.329Z,61.60
2019-06-08T07:52:02.463Z,62.63
2019-06-08T07:54:28.352Z,57.42
2019-06-08T07:57:00.505Z,58.13
2019-06-08T07:59:32.568Z,59.88
2019-06-08T08:02:04.528Z,61.12
2019-06-08T08:04:36.501Z,62.15
2019-06-08T08:07:08.542Z,60.06
2019-06-08T08:09:40.482Z,55.50
2019-06-08T08:12:12.704Z,57.11
2019-06-08T08:14:44.744Z,58.56
2019-06-08T08:17:16.733Z,59.42
2019-06-08T08:19:48.975Z,60.34
2019-06-08T08:22:25.934Z,60.43
2019-06-08T08:24:57.927Z,60.56
2019-06-08T08:27:28.494Z,60.64
2019-06-08T08:30:01.839Z,59.37
2019-06-08T08:32:34.353Z,58.83
2019-06-08T08:35:08.785Z,58.01
2019-06-08T08:37:41.172Z,57.91
2019-06-08T08:40:13.304Z,58.05
2019-06-08T08:42:45.442Z,57.98
2019-06-08T08:45:18.321Z,55.48
2019-06-08T08:47:51.161Z,54.21
2019-06-08T08:50:24.344Z,54.72
2019-06-08T08:53:05.284Z,53.34
2019-06-08T08:55:37.981Z,53.61
2019-06-08T08:58:10.066Z,53.38
2019-06-08T09:00:41.992Z,53.01
2019-06-08T09:03:28.530Z,51.63
2019-06-08T09:05:48.298Z,50.02
2019-06-08T09:08:29.753Z,50.46
2019-06-08T09:11:03.868Z,50.34
2019-06-08T09:13:37.697Z,50.33
2019-06-08T09:16:09.884Z,50.72
2019-06-08T09:18:41.937Z,49.99
2019-06-08T09:21:13.967Z,49.58
2019-06-08T09:23:48.431Z,48.69
2019-06-08T09:26:19.733Z,48.62
2019-06-08T09:28:53.142Z,50.69
2019-06-08T09:31:28.071Z,51.92
2019-06-08T09:34:08.677Z,51.54
2019-06-08T09:36:32.936Z,50.46
2019-06-08T09:39:12.313Z,49.70
2019-06-08T09:41:40.698Z,48.80
2019-06-08T09:44:12.786Z,48.88
2019-06-08T09:46:44.839Z,49.71
2019-06-08T09:49:18.857Z,48.27
2019-06-08T09:51:51.183Z,48.67
2019-06-08T09:54:23.263Z,48.50
2019-06-08T09:56:55.776Z,49.05
2019-06-08T09:59:28.514Z,48.81
2019-06-08T10:02:07.421Z,48.41
2019-06-08T10:04:35.203Z,48.68
2019-06-08T10:07:08.905Z,48.22
2019-06-08T10:09:43.337Z,47.63
2019-06-08T10:12:18.038Z,48.64
2019-06-08T10:14:49.843Z,48.74
2019-06-08T10:17:21.945Z,47.21
2019-06-08T10:19:54.657Z,46.99
2019-06-08T10:22:28.270Z,47.80
2019-06-08T10:25:04.150Z,45.92
2019-06-08T10:27:34.165Z,46.66
2019-06-08T10:30:11.095Z,46.56
2019-06-08T10:32:43.126Z,45.38
2019-06-08T10:35:18.513Z,44.21
2019-06-08T10:37:51.183Z,43.97
2019-06-08T10:40:24.360Z,44.35
2019-06-08T10:42:59.798Z,44.71
2019-06-08T10:45:30.088Z,45.22
2019-06-08T10:48:03.228Z,46.20
2019-06-08T10:50:35.625Z,47.17
2019-06-08T10:53:10.532Z,47.49
2019-06-08T10:55:41.185Z,47.39
2019-06-08T10:58:13.179Z,47.50
2019-06-08T11:00:45.309Z,47.54
2019-06-08T11:03:17.505Z,47.23
2019-06-08T11:05:51.332Z,47.62
2019-06-08T11:08:23.047Z,47.98
2019-06-08T11:10:57.495Z,47.56
2019-06-08T11:13:28.828Z,47.38
2019-06-08T11:16:02.471Z,46.96
2019-06-08T11:18:34.391Z,45.73
2019-06-08T11:21:09.932Z,44.29
2019-06-08T11:23:41.656Z,42.21
2019-06-08T11:26:22.620Z,41.06
2019-06-08T11:28:50.827Z,41.57
2019-06-08T11:31:21.199Z,42.68
2019-06-08T11:33:53.227Z,43.05
2019-06-08T11:36:25.174Z,43.83
2019-06-08T11:38:59.201Z,44.39
2019-06-08T11:41:30.724Z,44.52
2019-06-08T11:44:03.868Z,44.66
2019-06-08T11:46:38.406Z,44.83
2019-06-08T11:49:13.454Z,44.92
2019-06-08T11:51:43.818Z,45.33
2019-06-08T11:54:29.487Z,45.83
2019-06-08T11:56:52.230Z,46.17
2019-06-08T11:59:25.658Z,46.65
2019-06-08T12:01:58.625Z,46.76
2019-06-08T12:04:30.660Z,47.12
2019-06-08T12:07:02.583Z,47.48
2019-06-08T12:09:34.608Z,48.27
2019-06-08T12:12:09.216Z,48.59
2019-06-08T12:14:40.572Z,49.29
2019-06-08T12:17:18.870Z,49.64
2019-06-08T12:19:49.533Z,50.23
2019-06-08T12:22:21.923Z,50.61
2019-06-08T12:24:53.986Z,51.16
2019-06-08T12:27:33.142Z,52.29
2019-06-08T12:29:59.536Z,52.12
2019-06-08T12:32:31.628Z,52.34
2019-06-08T12:35:05.110Z,52.48
2019-06-08T12:37:38.684Z,52.56
2019-06-08T12:40:13.284Z,52.45
2019-06-08T12:42:45.526Z,52.80
2019-06-08T12:45:19.916Z,52.72
2019-06-08T12:47:55.064Z,52.57
2019-06-08T12:50:28.815Z,52.22
2019-06-08T12:53:01.008Z,52.17
2019-06-08T12:55:33.000Z,52.18
2019-06-08T12:58:08.131Z,51.72
2019-06-08T13:00:40.342Z,51.79
2019-06-08T13:03:12.938Z,52.10
2019-06-08T13:05:45.116Z,51.87
2019-06-08T13:08:20.055Z,52.09
2019-06-08T13:10:50.664Z,52.99
2019-06-08T13:13:24.496Z,51.97
2019-06-08T13:15:58.035Z,51.10
2019-06-08T13:18:30.257Z,50.87
2019-06-08T13:21:15.567Z,50.37
2019-06-08T13:23:40.808Z,49.17
2019-06-08T13:26:10.892Z,48.79
2019-06-08T13:28:43.281Z,47.24
2019-06-08T13:31:18.250Z,47.98
2019-06-08T13:33:49.203Z,47.68
2019-06-08T13:36:26.093Z,47.30
2019-06-08T13:38:54.825Z,48.53
2019-06-08T13:41:29.646Z,48.20
2019-06-08T13:44:00.319Z,44.44
2019-06-08T13:46:32.431Z,45.16
2019-06-08T13:49:04.478Z,41.03
2019-06-08T13:51:38.432Z,40.61
2019-06-08T13:54:10.774Z,41.62
2019-06-08T13:56:42.892Z,40.31
2019-06-08T13:59:19.217Z,36.16
2019-06-08T14:01:51.238Z,33.69
2019-06-08T14:04:23.834Z,30.51
2019-06-08T14:06:58.121Z,28.91
2019-06-08T14:09:31.832Z,28.95
2019-06-08T14:12:03.854Z,27.85
2019-06-08T14:14:39.690Z,27.34
2019-06-08T14:17:09.407Z,27.95
2019-06-08T14:19:41.364Z,28.10
2019-06-08T14:22:13.376Z,27.20
2019-06-08T14:24:47.788Z,27.09
2019-06-08T14:27:19.360Z,27.32
2019-06-08T14:29:51.479Z,26.21
2019-06-08T14:32:23.876Z,26.56
2019-06-08T14:34:58.246Z,26.18
2019-06-08T14:37:30.558Z,26.10
2019-06-08T14:40:02.700Z,26.99
2019-06-08T14:42:35.401Z,26.68
2019-06-08T14:45:10.873Z,26.46
2019-06-08T14:47:42.454Z,27.02
2019-06-08T14:50:14.820Z,28.02
2019-06-08T14:52:47.926Z,28.34
2019-06-08T14:55:21.745Z,28.55
2019-06-08T14:57:54.376Z,28.47
2019-06-08T15:00:27.527Z,28.89
2019-06-08T15:03:00.286Z,29.76
2019-06-08T15:05:32.805Z,30.85
2019-06-08T15:08:04.873Z,30.59
2019-06-08T15:10:38.474Z,30.51
2019-06-08T15:13:10.705Z,30.81
2019-06-08T15:15:42.753Z,30.29
2019-06-08T15:18:14.576Z,30.15
2019-06-08T15:20:48.101Z,31.48
2019-06-08T15:23:22.868Z,30.89
2019-06-08T15:25:53.937Z,30.32
2019-06-08T15:28:29.283Z,28.72
2019-06-08T15:31:00.071Z,28.54
2019-06-08T15:33:33.629Z,27.99
2019-06-08T15:36:05.760Z,27.25
2019-06-08T15:38:38.152Z,26.31
2019-06-08T15:41:10.223Z,26.61
2019-06-08T15:43:42.190Z,26.06
2019-06-08T15:46:14.253Z,25.57
2019-06-08T15:48:48.514Z,24.73
2019-06-08T15:51:19.982Z,23.74
2019-06-08T15:53:52.005Z,23.14
2019-06-08T15:56:40.620Z,22.84
2019-06-08T15:58:58.799Z,22.33
2019-06-08T16:01:31.557Z,22.05
2019-06-08T16:04:04.244Z,21.65
2019-06-08T16:06:36.291Z,21.58
2019-06-08T16:09:09.719Z,22.07
2019-06-08T16:11:41.676Z,21.85
2019-06-08T16:14:13.554Z,21.78
2019-06-08T16:16:45.701Z,21.05
2019-06-08T16:19:17.634Z,20.43
2019-06-08T16:21:49.560Z,19.98
2019-06-08T16:24:21.570Z,20.27
2019-06-08T16:26:53.816Z,20.72
2019-06-08T16:29:26.794Z,20.61
2019-06-08T16:31:58.860Z,19.75
2019-06-08T16:34:31.364Z,19.61
2019-06-08T16:37:03.442Z,20.09
2019-06-08T16:39:35.367Z,20.32
2019-06-08T16:42:07.328Z,19.87
2019-06-08T16:44:39.364Z,19.76
2019-06-08T16:47:12.387Z,19.89
2019-06-08T16:49:44.267Z,19.59
2019-06-08T16:52:17.280Z,19.72
2019-06-08T16:54:49.402Z,19.09
2019-06-08T16:57:21.376Z,18.68
2019-06-08T16:59:53.330Z,19.40
2019-06-08T17:02:26.538Z,18.12
2019-06-08T17:04:59.609Z,17.99
2019-06-08T17:07:32.151Z,18.06
2019-06-08T17:10:06.567Z,17.92
2019-06-08T17:12:39.120Z,18.38
2019-06-08T17:15:13.255Z,18.22
2019-06-08T17:17:45.269Z,18.45
2019-06-08T17:20:17.489Z,18.53
2019-06-08T17:22:50.455Z,18.81
2019-06-08T17:25:22.394Z,19.24
2019-06-08T17:27:54.497Z,19.93
2019-06-08T17:30:26.390Z,20.18
2019-06-08T17:32:58.485Z,20.48
2019-06-08T17:35:31.397Z,21.24
2019-06-08T17:38:03.551Z,21.49
2019-06-08T17:40:35.860Z,22.29
2019-06-08T17:43:07.934Z,22.36
2019-06-08T17:45:41.114Z,22.99
2019-06-08T17:48:13.243Z,23.08
2019-06-08T17:50:45.204Z,23.78
2019-06-08T17:53:17.089Z,24.64
2019-06-08T17:55:49.178Z,25.17
2019-06-08T17:58:21.727Z,25.55
2019-06-08T18:00:54.007Z,26.20
2019-06-08T18:03:27.920Z,26.66
2019-06-08T18:06:00.028Z,27.46
2019-06-08T18:08:32.024Z,27.83
2019-06-08T18:11:03.972Z,28.40
2019-06-08T18:13:38.998Z,29.29
2019-06-08T18:16:09.580Z,29.60
2019-06-08T18:18:42.291Z,30.39
2019-06-08T18:21:17.565Z,31.54
2019-06-08T18:23:48.981Z,31.99
2019-06-08T18:26:21.152Z,32.04
2019-06-08T18:28:55.066Z,33.91
2019-06-08T18:31:27.639Z,33.99
2019-06-08T18:34:02.102Z,33.72
2019-06-08T18:36:35.625Z,33.97
2019-06-08T18:39:08.205Z,34.40
2019-06-08T18:41:41.183Z,34.85
2019-06-08T18:44:14.063Z,36.22
2019-06-08T18:46:48.084Z,37.10
2019-06-08T18:49:19.653Z,38.66
2019-06-08T18:51:53.761Z,39.39
2019-06-08T18:54:27.853Z,40.13
2019-06-08T18:56:59.226Z,40.19
2019-06-08T18:59:31.202Z,42.20
2019-06-08T19:02:03.284Z,41.37
2019-06-08T19:04:37.433Z,41.77
2019-06-08T19:07:08.967Z,42.68
2019-06-08T19:09:42.623Z,42.77
2019-06-08T19:12:17.188Z,42.10
2019-06-08T19:14:51.974Z,43.24
2019-06-08T19:17:22.454Z,44.36
2019-06-08T19:19:54.366Z,44.53
2019-06-08T19:22:30.062Z,45.53
2019-06-08T19:25:00.214Z,46.05
2019-06-08T19:27:32.478Z,46.54
2019-06-08T19:30:06.226Z,47.35
2019-06-08T19:32:40.394Z,49.15
2019-06-08T19:35:12.301Z,48.90
2019-06-08T19:37:44.209Z,49.43
2019-06-08T19:40:17.645Z,51.17
2019-06-08T19:42:57.178Z,52.31
2019-06-08T19:45:23.806Z,52.20
2019-06-08T19:47:57.799Z,51.94
2019-06-08T19:50:29.566Z,52.18
2019-06-08T19:53:01.553Z,52.81
2019-06-08T19:55:33.910Z,53.34
2019-06-08T19:58:08.557Z,53.18
2019-06-08T20:00:40.604Z,53.01
2019-06-08T20:03:14.132Z,53.13
2019-06-08T20:05:50.122Z,54.21
2019-06-08T20:08:19.988Z,54.35
2019-06-08T20:10:52.186Z,54.71
2019-06-08T20:13:24.250Z,54.99
2019-06-08T20:15:59.603Z,54.88
2019-06-08T20:18:30.261Z,55.16
2019-06-08T20:21:02.246Z,55.56
2019-06-08T20:23:34.552Z,56.42
2019-06-08T20:26:08.385Z,56.64
2019-06-08T20:28:42.053Z,57.59
2019-06-08T20:31:15.229Z,57.36
2019-06-08T20:33:50.235Z,57.52
2019-06-08T20:36:20.891Z,57.46
2019-06-08T20:38:52.984Z,58.92
2019-06-08T20:41:27.597Z,59.15
2019-06-08T20:43:58.728Z,58.72
2019-06-08T20:46:30.667Z,60.18
2019-06-08T20:49:02.551Z,59.66
2019-06-08T20:51:34.487Z,60.57
2019-06-08T20:54:07.950Z,61.24
2019-06-08T20:56:40.076Z,61.13
2019-06-08T20:59:24.266Z,60.97
2019-06-08T21:01:48.353Z,61.10
2019-06-08T21:04:19.162Z,61.54
2019-06-08T21:06:52.822Z,62.06
2019-06-08T21:09:24.837Z,62.62
2019-06-08T21:11:58.749Z,60.62
2019-06-08T21:14:30.483Z,53.03
2019-06-08T21:17:03.041Z,53.53
2019-06-08T21:19:34.923Z,54.91
2019-06-08T21:22:08.204Z,55.95
2019-06-08T21:24:40.444Z,57.36
2019-06-08T21:27:12.335Z,58.56
2019-06-08T21:29:49.059Z,59.06
2019-06-08T21:32:20.976Z,59.64
2019-06-08T21:34:52.659Z,59.59
2019-06-08T21:37:27.902Z,60.03
2019-06-08T21:40:03.757Z,60.46
2019-06-08T21:42:33.855Z,61.38
2019-06-08T21:45:09.752Z,61.16
2019-06-08T21:47:42.159Z,62.34
2019-06-08T21:50:18.641Z,60.16
2019-06-08T21:52:54.698Z,53.51
2019-06-08T21:55:33.570Z,54.79
2019-06-08T21:58:07.865Z,55.83
2019-06-08T22:00:47.054Z,56.78
2019-06-08T22:03:19.004Z,58.07
2019-06-08T22:05:51.754Z,59.00
2019-06-08T22:08:23.683Z,59.80
2019-06-08T22:10:58.962Z,60.66
2019-06-08T22:13:29.500Z,60.91
2019-06-08T22:16:02.246Z,61.35
2019-06-08T22:18:35.095Z,61.86
2019-06-08T22:21:08.080Z,62.01
2019-06-08T22:24:07.995Z,62.50
2019-06-08T22:26:39.461Z,58.99
2019-06-08T22:29:12.417Z,52.17
2019-06-08T22:31:44.275Z,53.17
2019-06-08T22:34:17.471Z,55.19
2019-06-08T22:36:49.701Z,57.07
2019-06-08T22:39:22.945Z,57.90
2019-06-08T22:41:56.077Z,58.90
2019-06-08T22:44:28.532Z,59.69
2019-06-08T22:47:01.968Z,60.84
2019-06-08T22:49:34.027Z,61.29
2019-06-08T22:52:08.210Z,62.13
2019-06-08T22:54:39.494Z,62.83
2019-06-08T22:57:11.392Z,60.76
2019-06-08T22:59:43.344Z,50.58
2019-06-08T23:02:15.284Z,47.87
2019-06-08T23:05:01.332Z,50.43
2019-06-08T23:07:32.920Z,52.50
2019-06-08T23:10:22.833Z,53.63
2019-06-08T23:13:04.373Z,55.36
2019-06-08T23:15:38.055Z,56.66
2019-06-08T23:18:12.954Z,57.97
2019-06-08T23:20:48.082Z,59.04
2019-06-08T23:23:19.967Z,59.64
2019-06-08T23:25:52.150Z,60.28
2019-06-08T23:28:28.275Z,60.90
2019-06-08T23:31:10.707Z,61.73
2019-06-08T23:33:34.802Z,62.89
2019-06-08T23:36:43.481Z,61.07
2019-06-08T23:38:40.713Z,50.12
2019-06-08T23:41:12.815Z,47.38
2019-06-08T23:43:44.780Z,50.03
2019-06-08T23:46:18.142Z,52.22
2019-06-08T23:48:50.170Z,53.98
2019-06-08T23:51:22.233Z,54.72
2019-06-08T23:53:54.115Z,56.28
2019-06-08T23:56:27.746Z,57.67
2019-06-08T23:59:00.359Z,58.18
